| time (UTC) | temp F | wind direction | speed MPH | gust MPH | rain 1hr in | rain 24hr in | rain mn in | humidity % | barometer mb |
| 20260504044605 | 57 | 244 | 1.0 | 4.0 | 0.00 | 0.10 | 0.10 | 48 | 1005.2 |
| 20260504043057 | 57 | 240 | 0.0 | 5.0 | 0.00 | 0.10 | 0.10 | 47 | 1005.0 |
| 20260504041608 | 57 | 259 | 0.0 | 4.0 | 0.00 | 0.10 | 0.10 | 47 | 1005.0 |
| 20260504034614 | 59 | 259 | 1.0 | 6.0 | 0.00 | 0.10 | 0.10 | 45 | 1005.0 |
| 20260504033109 | 58 | 272 | 0.0 | 1.0 | 0.00 | 0.10 | 0.10 | 47 | 1005.1 |
| 20260504031600 | 58 | 272 | 1.0 | 4.0 | 0.00 | 0.10 | 0.10 | 48 | 1005.1 |
| 20260504030054 | 59 | 272 | 4.0 | 7.0 | 0.00 | 0.10 | 0.10 | 47 | 1005.0 |
| 20260504024552 | 58 | 275 | 3.0 | 7.0 | 0.00 | 0.10 | 0.10 | 48 | 1005.0 |
| 20260504023057 | 59 | 277 | 2.0 | 6.0 | 0.00 | 0.10 | 0.10 | 47 | 1004.9 |
| 20260504021554 | 59 | 284 | 2.0 | 4.0 | 0.00 | 0.10 | 0.10 | 48 | 1004.8 |
| 20260504020051 | 59 | 284 | 6.0 | 9.0 | 0.00 | 0.10 | 0.10 | 48 | 1004.7 |
| 20260504014606 | 60 | 292 | 7.0 | 9.0 | 0.00 | 0.10 | 0.10 | 47 | 1004.6 |
| 20260504013054 | 62 | 279 | 8.0 | 11.0 | 0.00 | 0.10 | 0.10 | 45 | 1004.4 |
| 20260504011558 | 64 | 268 | 9.0 | 11.0 | 0.00 | 0.10 | 0.10 | 42 | 1004.1 |
| 20260504010059 | 66 | 273 | 7.0 | 11.0 | 0.00 | 0.10 | 0.10 | 42 | 1004.2 |
| 20260504004555 | 66 | 267 | 5.0 | 10.0 | 0.00 | 0.10 | 0.10 | 41 | 1004.0 |
| 20260504003059 | 68 | 273 | 3.0 | 7.0 | 0.00 | 0.10 | 0.10 | 42 | 1003.9 |
| 20260504001554 | 69 | 274 | 5.0 | 8.0 | 0.00 | 0.10 | 0.10 | 40 | 1003.8 |
| 20260504000055 | 71 | 269 | 7.0 | 13.0 | 0.00 | 0.10 | 0.10 | 38 | 1003.9 |
| 20260503234556 | 71 | 285 | 8.0 | 15.0 | 0.00 | 0.10 | 0.10 | 38 | 1004.0 |
| 20260503233054 | 71 | 271 | 1.0 | 14.0 | 0.00 | 0.10 | 0.10 | 37 | 1003.9 |
| 20260503231555 | 72 | 244 | 8.0 | 12.0 | 0.00 | 0.10 | 0.10 | 37 | 1004.0 |
| 20260503230058 | 72 | 275 | 7.0 | 12.0 | 0.00 | 0.10 | 0.10 | 38 | 1004.0 |
| 20260503224551 | 71 | 240 | 5.0 | 11.0 | 0.00 | 0.10 | 0.10 | 40 | 1004.1 |
| 20260503223057 | 72 | 200 | 12.0 | 18.0 | 0.00 | 0.10 | 0.10 | 37 | 1004.1 |
| 20260503221555 | 72 | 233 | 13.0 | 18.0 | 0.00 | 0.10 | 0.10 | 37 | 1004.3 |
| 20260503220059 | 72 | 195 | 10.0 | 20.0 | 0.00 | 0.10 | 0.10 | 37 | 1004.3 |
| 20260503214555 | 72 | 204 | 14.0 | 23.0 | 0.00 | 0.10 | 0.10 | 38 | 1004.4 |
| 20260503213110 | 71 | 210 | 12.0 | 19.0 | 0.00 | 0.10 | 0.10 | 38 | 1004.4 |
| 20260503211557 | 71 | 219 | 13.0 | 23.0 | 0.00 | 0.10 | 0.10 | 39 | 1004.5 |
| 20260503210105 | 70 | 207 | 10.0 | 21.0 | 0.00 | 0.10 | 0.10 | 41 | 1004.8 |
| 20260503204601 | 70 | 273 | 12.0 | 21.0 | 0.00 | 0.10 | 0.10 | 40 | 1005.0 |
| 20260503203107 | 69 | 205 | 15.0 | 23.0 | 0.00 | 0.10 | 0.10 | 40 | 1005.3 |
| 20260503201606 | 68 | 264 | 15.0 | 23.0 | 0.00 | 0.10 | 0.10 | 40 | 1005.4 |
| 20260503200105 | 68 | 216 | 11.0 | 22.0 | 0.00 | 0.10 | 0.10 | 42 | 1005.5 |
| 20260503194558 | 68 | 223 | 15.0 | 24.0 | 0.00 | 0.10 | 0.10 | 42 | 1005.8 |
| 20260503193059 | 67 | 225 | 11.0 | 21.0 | 0.00 | 0.10 | 0.10 | 43 | 1005.9 |
| 20260503191602 | 68 | 227 | 15.0 | 24.0 | 0.00 | 0.10 | 0.10 | 41 | 1006.1 |
| 20260503190100 | 67 | 214 | 19.0 | 35.0 | 0.00 | 0.10 | 0.10 | 42 | 1006.4 |
| 20260503184606 | 67 | 217 | 16.0 | 25.0 | 0.00 | 0.10 | 0.10 | 43 | 1006.5 |
| 20260503183108 | 65 | 219 | 18.0 | 32.0 | 0.00 | 0.10 | 0.10 | 45 | 1006.7 |
| 20260503181607 | 65 | 204 | 16.0 | 28.0 | 0.02 | 0.10 | 0.10 | 46 | 1007.0 |
| 20260503180057 | 64 | 190 | 18.0 | 27.0 | 0.02 | 0.10 | 0.10 | 47 | 1007.0 |
| 20260503174556 | 63 | 191 | 20.0 | 33.0 | 0.02 | 0.10 | 0.10 | 48 | 1007.2 |
| 20260503173059 | 63 | 202 | 23.0 | 29.0 | 0.02 | 0.10 | 0.10 | 47 | 1007.5 |
| 20260503171555 | 63 | 211 | 21.0 | 38.0 | 0.00 | 0.08 | 0.08 | 50 | 1007.5 |
| 20260503110108 | 46 | 202 | 10.0 | 13.0 | 0.00 | 0.00 | 0.00 | 64 | 1011.6 |
| 20260503081619 | 46 | 198 | 12.0 | 18.0 | 0.00 | 0.00 | 0.00 | 57 | 1012.1 |
| 20260503080111 | 46 | 200 | 13.0 | 18.0 | 0.00 | 0.00 | 0.00 | 56 | 1012.2 |
| 20260503071554 | 46 | 202 | 12.0 | 17.0 | 0.00 | 0.00 | 0.00 | 56 | 1012.4 |
| 20260503060103 | 46 | 198 | 10.0 | 13.0 | 0.00 | 0.00 | 0.00 | 55 | 1012.8 |
| 20260503054600 | 47 | 192 | 11.0 | 15.0 | 0.00 | 0.00 | 0.00 | 54 | 1012.9 |
| 20260503053053 | 47 | 197 | 10.0 | 13.0 | 0.00 | 0.00 | 0.00 | 53 | 1013.0 |
| 20260503051553 | 47 | 198 | 11.0 | 18.0 | 0.00 | 0.00 | 0.00 | 52 | 1013.1 |